Kezdőlap
METAR-TAF:

METAR-TAF

Repülőterek :

Pruniers

Romorantin-Lanthenay, Franciaország

földrajzi szélesség: 47-19N, földrajzi hosszúság: 001-41E, magasság: 85 m

Jelenlegi meteorológiai megfigyelések

A jelentés 24 perccel ezelõtt készült, 04:00 UTC
Szélcsend
Hőmérséklet -3°C
Páratartalom 100%
Légköri nyomás 1029 hPa
Látótávolság: 1400 m
Párásság

METAR: LFYR 100400Z AUTO 00000KT 1400 BR NSC M03/M03 Q1029

Idő: 05:24 (04:24 UTC)


TAF: hiányzik

Meteorológiai megfigyelések és előrejelzések több, mint 4000 repülőtéren (METAR és TAF jelentéseket).

A térképen piros és sárga pontok jelzik az elérhető meteorológiai állomásokat.

Mozgassa az egeret a pont fölött, hogy megjelenjen az állomás neve.

Azután kattintson az időjárási megfigyelések és előrejelzések megtekintéséhez.

A térkép megváltoztatása: kattintson a fekete keresztel jelölt zöld gombra ráközelítéshez, a vonallal jelölt zöld gombra távolításhoz, vagy a zöld nyilakra a szomszédos térképek eléréséhez.


METAR-TAF: